CheckWX is a tool to help pilots better visualize weather data.  It is not intended as a substitute for an official pre-flight weather briefing.

19:16:07 UTC

CYEK METAR
Arviat Airport
Arviat, Canada
Current

1 hour ago

CYEK 261800Z 20011KT 15SM SCT280 01/M04 A3003 RMK CI3 SLP171
Observed
May-26 @ 18:00 UTC
Wind
  • 200° at 11 KTS
Visibility
15 SM
Flight Rules
VFR
Cloud Levels
  • Scattered at 28,000' AGL
Temperature
C / 34°F
Dewpoint
-4°C / 25°F
Humidity
70%
Altimeter
30.03" Hg
Pressure
1016.92 hPa
Previous

2 hours ago

CYEK 261700Z 23010KT 15SM OVC290 M00/M05 A3005 RMK CS8 SLP179
Observed
May-26 @ 17:00 UTC
Wind
  • 230° at 10 KTS
Visibility
15 SM
Flight Rules
VFR
Cloud Levels
  • Overcast at 29,000' AGL
Temperature
C / 32°F
Dewpoint
-5°C / 23°F
Humidity
69%
Altimeter
30.05" Hg
Pressure
1017.62 hPa
Previous

3 hours ago

CYEK 261600Z 24009KT 15SM OVC290 M02/M05 A3007 RMK CS8 SLP186
Observed
May-26 @ 16:00 UTC
Wind
  • 240° at 9 KTS
Visibility
15 SM
Flight Rules
VFR
Cloud Levels
  • Overcast at 29,000' AGL
Temperature
-2°C / 28°F
Dewpoint
-5°C / 23°F
Humidity
80%
Altimeter
30.07" Hg
Pressure
1018.32 hPa